Time;durP1;ratioP1;P1;durP2;ratioP2;P2;SDS_P1;SDS_P2;PMS_P1;PMS_P2;Temp;Humidity;BMP_temperature;BMP_pressure;BME280_temperature;BME280_humidity;BME280_pressure;Samples;Min_cycle;Max_cycle;Signal;HPM_P1;HPM_P2
2022/11/22 00:01:10;;;;;;;;;;;;;;;-143.57;100.00;51477.94;5082338;28;20389;-67
2022/11/22 00:03:37;;;;;;;;;;;;;;;-143.57;100.00;51462.03;5081559;28;19981;-67
2022/11/22 00:06:03;;;;;;;;;;;;;;;-143.57;100.00;51466.00;5081327;28;19928;-67
2022/11/22 00:08:32;;;;;;;;;;;;;;;-143.57;100.00;51450.09;5079953;28;20028;-67
2022/11/22 00:10:58;;;;;;;;;;;;;;;-143.57;100.00;51434.19;5080371;28;19924;-67
2022/11/22 00:13:25;;;;;;;;;;;;;;;-143.57;100.00;51424.25;5084281;28;19981;-68
2022/11/22 00:16:02;;;;;;;;;;;;;;;-143.57;100.00;51462.03;5084122;28;19928;-68
2022/11/22 00:18:29;;;;;;;;;;;;;;;-143.57;100.00;51450.09;5078868;28;19981;-68
2022/11/22 00:20:55;;;;;;;;;;;;;;;-143.57;100.00;51471.97;5081716;28;19932;-69
2022/11/22 00:23:22;;;;;;;;;;;;;;;-143.57;100.00;51442.16;5081005;28;19939;-68
2022/11/22 00:25:49;;;;;;;;;;;;;;;-143.57;100.00;51462.03;5078247;28;20287;-69
2022/11/22 00:28:15;;;;;;;;;;;;;;;-143.57;100.00;51426.25;5081368;28;19928;-68
2022/11/22 00:30:44;;;;;;;;;;;;;;;-143.57;100.00;51473.94;5080426;28;21640;-68
2022/11/22 00:33:10;;;;;;;;;;;;;;;-143.57;100.00;51414.31;5078730;28;20384;-68
2022/11/22 00:35:37;;;;;;;;;;;;;;;-143.57;100.00;51462.03;5081846;28;19935;-68
2022/11/22 00:38:04;;;;;;;;;;;;;;;-143.57;100.00;51448.09;5079775;28;19928;-69
2022/11/22 00:40:30;;;;;;;;;;;;;;;-143.57;100.00;51438.16;5080743;28;19924;-69
2022/11/22 00:42:57;;;;;;;;;;;;;;;-143.57;100.00;51442.16;5080826;28;19946;-68
2022/11/22 00:45:23;;;;;;;;;;;;;;;-143.57;100.00;51442.16;5081827;28;19968;-68
2022/11/22 00:47:50;;;;;;;;;;;;;;;-143.57;100.00;51450.09;5080734;28;20478;-68
2022/11/22 00:50:17;;;;;;;;;;;;;;;-143.57;100.00;51458.03;5080866;28;19938;-68
2022/11/22 00:52:43;;;;;;;;;;;;;;;-143.57;100.00;51430.22;5081961;28;20336;-69
2022/11/22 00:55:10;;;;;;;;;;;;;;;-143.57;100.00;51481.91;5081199;28;19932;-68
2022/11/22 00:57:37;;;;;;;;;;;;;;;-143.57;100.00;51466.00;5081081;28;19928;-67
2022/11/22 01:00:05;;;;;;;;;;;;;;;-143.57;100.00;51450.09;5081616;28;19935;-68
2022/11/22 01:02:31;;;;;;;;;;;;;;;-143.57;100.00;51426.25;5081260;28;19989;-68
2022/11/22 01:04:58;;;;;;;;;;;;;;;-143.57;100.00;51454.06;5081153;28;19932;-68
2022/11/22 01:07:25;;;;;;;;;;;;;;;-143.57;100.00;51442.16;5080731;28;19924;-68
2022/11/22 01:09:52;;;;;;;;;;;;;;;-143.57;100.00;51456.06;5079911;28;20404;-68
2022/11/22 01:12:19;;;;;;;;;;;;;;;-143.57;100.00;51462.03;5080345;28;19985;-69
2022/11/22 01:14:45;;;;;;;;;;;;;;;-143.57;100.00;51446.13;5083764;28;19928;-67
2022/11/22 01:17:12;;;;;;;;;;;;;;;-143.57;100.00;51442.16;5083683;28;19928;-67
2022/11/22 01:19:39;;;;;;;;;;;;;;;-143.57;100.00;51438.16;5082262;28;19924;-68
2022/11/22 01:22:05;;;;;;;;;;;;;;;-143.57;100.00;51454.06;5085370;28;20465;-67
2022/11/22 01:24:32;;;;;;;;;;;;;;;-143.57;100.00;51454.06;5084464;28;20060;-67
2022/11/22 01:26:58;;;;;;;;;;;;;;;-143.57;100.00;51430.22;5084983;28;19961;-67
2022/11/22 01:29:25;;;;;;;;;;;;;;;-143.57;100.00;51450.09;5085207;28;20453;-68
2022/11/22 01:31:52;;;;;;;;;;;;;;;-143.57;100.00;51398.41;5084320;28;19955;-68
2022/11/22 01:34:19;;;;;;;;;;;;;;;-143.57;100.00;51404.38;5087132;28;19924;-68
2022/11/22 01:36:45;;;;;;;;;;;;;;;-143.57;100.00;51462.03;5082803;28;20309;-68
2022/11/22 01:39:12;;;;;;;;;;;;;;;-143.57;100.00;51418.28;5085865;28;19928;-68
2022/11/22 01:41:39;;;;;;;;;;;;;;;-143.57;100.00;51454.06;5086561;28;19924;-67
2022/11/22 01:44:19;;;;;;;;;;;;;;;-143.57;100.00;51446.13;5083812;28;20032;-68
2022/11/22 01:46:47;;;;;;;;;;;;;;;-143.57;100.00;51418.28;5083657;28;20391;-67
2022/11/22 01:49:24;;;;;;;;;;;;;;;-143.57;100.00;51436.19;5084251;28;19983;-67
2022/11/22 01:51:53;;;;;;;;;;;;;;;-143.57;100.00;51434.19;5081858;28;20007;-67
2022/11/22 01:54:21;;;;;;;;;;;;;;;-143.57;100.00;51438.16;5083625;28;20087;-68
2022/11/22 01:56:50;;;;;;;;;;;;;;;-143.57;100.00;51444.13;5084291;28;19928;-67
2022/11/22 01:59:18;;;;;;;;;;;;;;;-143.57;100.00;51473.94;5086178;28;19935;-68
2022/11/22 02:01:45;;;;;;;;;;;;;;;-143.57;100.00;51481.91;5085666;28;19981;-67
2022/11/22 02:04:13;;;;;;;;;;;;;;;-143.57;100.00;51438.16;5082109;28;19928;-68
2022/11/22 02:07:00;;;;;;;;;;;;;;;-143.57;100.00;51460.03;5083446;28;19977;-68
2022/11/22 02:09:28;;;;;;;;;;;;;;;-143.57;100.00;51462.03;5083601;28;20010;-68
2022/11/22 02:11:56;;;;;;;;;;;;;;;-143.57;100.00;51454.06;5083538;28;20434;-68
2022/11/22 02:14:24;;;;;;;;;;;;;;;-143.57;100.00;51446.13;5084937;28;19967;-67
2022/11/22 02:16:51;;;;;;;;;;;;;;;-143.57;100.00;51454.06;5084460;28;19932;-68
2022/11/22 02:19:32;;;;;;;;;;;;;;;-143.57;100.00;51458.03;5084743;28;20427;-68
2022/11/22 02:22:03;;;;;;;;;;;;;;;-143.57;100.00;51410.34;5083336;28;20378;-68
2022/11/22 02:24:40;;;;;;;;;;;;;;;-143.57;100.00;51438.16;5083808;28;19936;-68
2022/11/22 02:27:07;;;;;;;;;;;;;;;-143.57;100.00;51469.97;5083135;28;19931;-68
2022/11/22 02:29:34;;;;;;;;;;;;;;;-143.57;100.00;51422.25;5081882;28;19932;-68
2022/11/22 02:32:00;;;;;;;;;;;;;;;-143.57;100.00;51458.03;5082052;28;20916;-68
2022/11/22 02:34:27;;;;;;;;;;;;;;;-143.57;100.00;51442.16;5083495;28;19928;-68
2022/11/22 02:36:54;;;;;;;;;;;;;;;-143.57;100.00;51428.22;5080611;28;19954;-68
2022/11/22 02:39:24;;;;;;;;;;;;;;;-143.57;100.00;51442.16;5082293;28;20611;-68
2022/11/22 02:41:50;;;;;;;;;;;;;;;-143.57;100.00;51454.06;5083706;28;20006;-68
2022/11/22 02:44:18;;;;;;;;;;;;;;;-143.57;100.00;51446.13;5083928;28;20481;-67
2022/11/22 02:46:45;;;;;;;;;;;;;;;-143.57;100.00;51430.22;5083149;28;19924;-68
2022/11/22 02:49:14;;;;;;;;;;;;;;;-143.57;100.00;51454.06;5082911;28;19928;-68
2022/11/22 02:51:41;;;;;;;;;;;;;;;-143.57;100.00;51458.03;5083114;28;19931;-68
2022/11/22 02:54:07;;;;;;;;;;;;;;;-143.57;100.00;51442.16;5083467;28;19961;-68
2022/11/22 02:56:34;;;;;;;;;;;;;;;-143.57;100.00;51466.00;5083143;28;19932;-68
2022/11/22 02:59:00;;;;;;;;;;;;;;;-143.57;100.00;51454.06;5083237;28;19989;-68
2022/11/22 03:01:28;;;;;;;;;;;;;;;-143.57;100.00;51430.22;5082772;28;20401;-68
2022/11/22 03:03:54;;;;;;;;;;;;;;;-143.57;100.00;51442.16;5082550;28;19936;-68
2022/11/22 03:06:21;;;;;;;;;;;;;;;-143.57;100.00;51446.13;5082438;28;19971;-68
2022/11/22 03:08:47;;;;;;;;;;;;;;;-143.57;100.00;51442.16;5080608;28;20336;-68
2022/11/22 03:11:21;;;;;;;;;;;;;;;-143.57;100.00;51444.13;5080911;28;19981;-69
2022/11/22 03:13:48;;;;;;;;;;;;;;;-143.57;100.00;51473.94;5082903;28;19924;-70
2022/11/22 03:16:14;;;;;;;;;;;;;;;-143.57;100.00;51442.16;5082685;28;19932;-68
2022/11/22 03:18:41;;;;;;;;;;;;;;;-143.57;100.00;51468.00;5082269;28;19928;-69
2022/11/22 03:21:08;;;;;;;;;;;;;;;-143.57;100.00;51428.22;5082086;28;19959;-69
2022/11/22 03:23:35;;;;;;;;;;;;;;;-143.57;100.00;51438.16;5082458;28;19928;-68
2022/11/22 03:26:07;;;;;;;;;;;;;;;-143.57;100.00;51444.13;5080897;28;19932;-69
2022/11/22 03:28:33;;;;;;;;;;;;;;;-143.57;100.00;51466.00;5082717;28;19932;-68
2022/11/22 03:31:00;;;;;;;;;;;;;;;-143.57;100.00;51410.34;5082249;28;19937;-69
2022/11/22 03:33:27;;;;;;;;;;;;;;;-143.57;100.00;51442.16;5082699;28;19947;-69
2022/11/22 03:35:55;;;;;;;;;;;;;;;-143.57;100.00;51438.16;5082186;28;20053;-69
2022/11/22 03:38:21;;;;;;;;;;;;;;;-143.57;100.00;51430.22;5081050;28;19928;-69
2022/11/22 03:40:48;;;;;;;;;;;;;;;-143.57;100.00;51442.16;5081873;28;19928;-68
2022/11/22 03:43:14;;;;;;;;;;;;;;;-143.57;100.00;51442.16;5080895;28;19959;-69
2022/11/22 03:45:45;;;;;;;;;;;;;;;-143.57;100.00;51430.22;5080911;28;20245;-69
2022/11/22 03:48:12;;;;;;;;;;;;;;;-143.57;100.00;51430.22;5080907;28;19936;-69
2022/11/22 03:50:39;;;;;;;;;;;;;;;-143.57;100.00;51462.03;5081253;28;20376;-69
2022/11/22 03:53:05;;;;;;;;;;;;;;;-143.57;100.00;51438.16;5082309;28;19928;-68
2022/11/22 03:55:32;;;;;;;;;;;;;;;-143.57;100.00;51400.41;5081614;28;19940;-68
2022/11/22 03:57:59;;;;;;;;;;;;;;;-143.57;100.00;51450.09;5084418;28;19935;-70
2022/11/22 04:00:26;;;;;;;;;;;;;;;-143.57;100.00;51466.00;5082367;28;19948;-69
2022/11/22 04:02:52;;;;;;;;;;;;;;;-143.57;100.00;51448.09;5080903;28;20019;-69
2022/11/22 04:05:19;;;;;;;;;;;;;;;-143.57;100.00;51462.03;5083221;28;19924;-68
2022/11/22 04:07:46;;;;;;;;;;;;;;;-143.57;100.00;51493.84;5081758;28;20376;-69
2022/11/22 04:10:12;;;;;;;;;;;;;;;-143.57;100.00;51426.25;5083498;28;19928;-68
2022/11/22 04:12:44;;;;;;;;;;;;;;;-143.57;100.00;51432.19;5084326;28;20447;-69
2022/11/22 04:15:11;;;;;;;;;;;;;;;-143.57;100.00;51450.09;5080764;28;19924;-69
2022/11/22 04:17:39;;;;;;;;;;;;;;;-143.57;100.00;51442.16;5082002;28;20758;-69
2022/11/22 04:23:07;;;;;;;;;;;;;;;-143.57;100.00;51458.03;5079896;28;19947;-68
2022/11/22 04:25:35;;;;;;;;;;;;;;;-143.57;100.00;51469.97;5078439;28;19928;-68
2022/11/22 04:28:02;;;;;;;;;;;;;;;-143.57;100.00;51398.41;5081043;28;20401;-68
2022/11/22 04:33:15;;;;;;;;;;;;;;;-143.57;100.00;51462.03;5080170;28;19932;-68
2022/11/22 04:35:41;;;;;;;;;;;;;;;-143.57;100.00;51462.03;5080674;28;19978;-69
2022/11/22 04:38:09;;;;;;;;;;;;;;;-143.57;100.00;51434.19;5078905;28;19928;-68
2022/11/22 04:40:36;;;;;;;;;;;;;;;-143.57;100.00;51408.34;5079377;28;19977;-69
2022/11/22 04:45:48;;;;;;;;;;;;;;;-143.57;100.00;51462.03;5079380;28;20418;-68
2022/11/22 04:48:16;;;;;;;;;;;;;;;-143.57;100.00;51418.28;5081276;28;19928;-68
2022/11/22 04:53:29;;;;;;;;;;;;;;;-143.57;100.00;51446.13;5080639;28;19928;-68
2022/11/22 04:55:55;;;;;;;;;;;;;;;-143.57;100.00;51469.97;5084352;28;19981;-68
2022/11/22 04:58:22;;;;;;;;;;;;;;;-143.57;100.00;51462.03;5083724;28;20049;-68
2022/11/22 05:00:49;;;;;;;;;;;;;;;-143.57;100.00;51450.09;5084674;28;19967;-68
2022/11/22 05:03:16;;;;;;;;;;;;;;;-143.57;100.00;51414.31;5085272;28;19924;-68
2022/11/22 05:05:43;;;;;;;;;;;;;;;-143.57;100.00;51422.25;5088040;28;20367;-67
2022/11/22 05:08:10;;;;;;;;;;;;;;;-143.57;100.00;51466.00;5085496;28;19928;-67
2022/11/22 05:13:26;;;;;;;;;;;;;;;-143.57;100.00;51462.03;5085885;28;19928;-67
2022/11/22 05:15:53;;;;;;;;;;;;;;;-143.57;100.00;51446.13;5087210;28;19932;-67
2022/11/22 05:18:20;;;;;;;;;;;;;;;-143.57;100.00;51442.16;5085475;28;20032;-66
2022/11/22 05:20:47;;;;;;;;;;;;;;;-143.57;100.00;51414.31;5082477;28;20404;-64
2022/11/22 05:25:59;;;;;;;;;;;;;;;-143.57;100.00;51454.06;5083833;28;19954;-66
2022/11/22 05:28:27;;;;;;;;;;;;;;;-143.57;100.00;51434.19;5083553;28;19935;-70
2022/11/22 05:30:54;;;;;;;;;;;;;;;-143.57;100.00;51430.22;5085783;28;20370;-66
2022/11/22 05:33:20;;;;;;;;;;;;;;;-143.57;100.00;51432.19;5083515;28;20015;-66
2022/11/22 05:35:47;;;;;;;;;;;;;;;-143.57;100.00;51481.91;5079975;28;19928;-66
2022/11/22 05:38:14;;;;;;;;;;;;;;;-143.57;100.00;51438.16;5078959;28;20457;-65
2022/11/22 05:40:40;;;;;;;;;;;;;;;-143.57;100.00;51436.19;5078691;28;20010;-66
2022/11/22 05:43:07;;;;;;;;;;;;;;;-143.57;100.00;51406.34;5083640;28;19950;-65
2022/11/22 05:45:33;;;;;;;;;;;;;;;-143.57;100.00;51440.16;5083208;28;20383;-66
2022/11/22 05:48:00;;;;;;;;;;;;;;;-143.57;100.00;51483.88;5084282;28;20002;-67
2022/11/22 05:50:27;;;;;;;;;;;;;;;-143.57;100.00;51462.03;5085537;28;20289;-65
2022/11/22 05:52:54;;;;;;;;;;;;;;;-143.57;100.00;51434.19;5083129;28;19928;-66
2022/11/22 05:55:21;;;;;;;;;;;;;;;-143.57;100.00;51414.31;5081078;28;19932;-66
2022/11/22 05:57:47;;;;;;;;;;;;;;;-143.57;100.00;51460.03;5081140;28;20025;-66
2022/11/22 06:00:14;;;;;;;;;;;;;;;-143.57;100.00;51450.09;5081884;28;19928;-66
2022/11/22 06:02:41;;;;;;;;;;;;;;;-143.57;100.00;51434.19;5082550;28;19928;-66
2022/11/22 06:05:08;;;;;;;;;;;;;;;-143.57;100.00;51430.22;5080748;28;20040;-66
2022/11/22 06:07:34;;;;;;;;;;;;;;;-143.57;100.00;51422.25;5081737;28;19931;-66
2022/11/22 06:10:01;;;;;;;;;;;;;;;-143.57;100.00;51477.94;5081520;28;19932;-66
2022/11/22 06:12:27;;;;;;;;;;;;;;;-143.57;100.00;51473.94;5080102;28;20059;-66
2022/11/22 06:14:54;;;;;;;;;;;;;;;-143.57;100.00;51454.06;5079349;28;19932;-66
2022/11/22 06:17:21;;;;;;;;;;;;;;;-143.57;100.00;51460.03;5078315;28;19935;-66
2022/11/22 06:19:47;;;;;;;;;;;;;;;-143.57;100.00;51438.16;5084203;28;20026;-66
2022/11/22 06:22:14;;;;;;;;;;;;;;;-143.57;100.00;51462.03;5084195;28;20302;-66
2022/11/22 06:24:41;;;;;;;;;;;;;;;-143.57;100.00;51458.03;5082707;28;19928;-67
2022/11/22 06:27:08;;;;;;;;;;;;;;;-143.57;100.00;51422.25;5081903;28;19986;-67
2022/11/22 06:29:35;;;;;;;;;;;;;;;-143.57;100.00;51454.06;5083024;28;19927;-68
2022/11/22 06:32:01;;;;;;;;;;;;;;;-143.57;100.00;51466.00;5082434;28;19939;-67
2022/11/22 06:34:29;;;;;;;;;;;;;;;-143.57;100.00;51458.03;5084676;28;19934;-67
2022/11/22 06:36:56;;;;;;;;;;;;;;;-143.57;100.00;51428.22;5079775;28;19924;-70
2022/11/22 06:39:22;;;;;;;;;;;;;;;-143.57;100.00;51434.19;5079779;28;19935;-66
2022/11/22 06:41:49;;;;;;;;;;;;;;;-143.57;100.00;51450.09;5082976;28;20042;-70
2022/11/22 06:44:16;;;;;;;;;;;;;;;-143.57;100.00;51434.19;5081489;28;19928;-69
2022/11/22 06:46:42;;;;;;;;;;;;;;;-143.57;100.00;51462.03;5082503;28;20341;-69
2022/11/22 06:49:09;;;;;;;;;;;;;;;-143.57;100.00;51458.03;5086977;28;19932;-69
2022/11/22 06:51:36;;;;;;;;;;;;;;;-143.57;100.00;51466.00;5082662;28;19928;-69
2022/11/22 06:54:02;;;;;;;;;;;;;;;-143.57;100.00;51458.03;5081844;28;20462;-69
2022/11/22 06:56:30;;;;;;;;;;;;;;;-143.57;100.00;51442.16;5080037;28;20068;-69
2022/11/22 06:59:00;;;;;;;;;;;;;;;-143.57;100.00;51473.94;5079708;28;19928;-69
2022/11/22 07:01:27;;;;;;;;;;;;;;;-143.57;100.00;51424.25;5079275;28;19924;-69
2022/11/22 07:03:56;;;;;;;;;;;;;;;-143.57;100.00;51434.19;5078449;28;19932;-69
2022/11/22 07:06:25;;;;;;;;;;;;;;;-143.57;100.00;51450.09;5081138;28;19928;-69
2022/11/22 07:08:51;;;;;;;;;;;;;;;-143.57;100.00;51460.03;5081688;28;19928;-69
2022/11/22 07:11:20;;;;;;;;;;;;;;;-143.57;100.00;51477.94;5081029;28;20424;-69
2022/11/22 07:13:47;;;;;;;;;;;;;;;-143.57;100.00;51462.03;5081195;28;20330;-69
2022/11/22 07:16:15;;;;;;;;;;;;;;;-143.57;100.00;51458.03;5081476;28;19985;-69
2022/11/22 07:18:42;;;;;;;;;;;;;;;-143.57;100.00;51469.97;5080271;28;20437;-69
2022/11/22 07:21:19;;;;;;;;;;;;;;;-143.57;100.00;51446.13;5080699;28;19934;-69
2022/11/22 07:23:47;;;;;;;;;;;;;;;-143.57;100.00;51469.97;5078655;28;20001;-69
2022/11/22 07:26:14;;;;;;;;;;;;;;;-143.57;100.00;51456.06;5077733;28;20405;-69
2022/11/22 07:28:41;;;;;;;;;;;;;;;-143.57;100.00;51485.88;5078989;28;20369;-69
2022/11/22 07:31:09;;;;;;;;;;;;;;;-143.57;100.00;51477.94;5079420;28;19924;-69
2022/11/22 07:33:36;;;;;;;;;;;;;;;-143.57;100.00;51462.03;5077805;28;20040;-69
2022/11/22 07:36:07;;;;;;;;;;;;;;;-143.57;100.00;51442.16;5078604;28;19988;-69
2022/11/22 07:38:33;;;;;;;;;;;;;;;-143.57;100.00;51462.03;5078614;28;20596;-70
2022/11/22 07:41:00;;;;;;;;;;;;;;;-143.57;100.00;51454.06;5081613;28;19928;-70
2022/11/22 07:43:27;;;;;;;;;;;;;;;-143.57;100.00;51424.25;5080155;28;20656;-69
2022/11/22 07:46:04;;;;;;;;;;;;;;;-143.57;100.00;51489.84;5079701;28;20080;-69
2022/11/22 07:48:31;;;;;;;;;;;;;;;-143.57;100.00;51464.00;5079632;28;20727;-69
2022/11/22 07:51:02;;;;;;;;;;;;;;;-143.57;100.00;51438.16;5080037;28;19985;-69
2022/11/22 07:53:29;;;;;;;;;;;;;;;-143.57;100.00;51450.09;5080442;28;20398;-69
2022/11/22 07:55:56;;;;;;;;;;;;;;;-143.57;100.00;51440.16;5077889;28;19977;-68
2022/11/22 07:58:23;;;;;;;;;;;;;;;-143.57;100.00;51456.06;5079017;28;19928;-68
2022/11/22 08:00:49;;;;;;;;;;;;;;;-143.57;100.00;51454.06;5082326;28;19970;-69
2022/11/22 08:03:16;;;;;;;;;;;;;;;-143.57;100.00;51487.88;5079265;28;19945;-69
2022/11/22 08:05:45;;;;;;;;;;;;;;;-143.57;100.00;51452.09;5079650;28;19963;-69
2022/11/22 08:08:11;;;;;;;;;;;;;;;-143.57;100.00;51436.19;5079553;28;20359;-69
2022/11/22 08:10:38;;;;;;;;;;;;;;;-143.57;100.00;51469.97;5079805;28;20499;-69
2022/11/22 08:13:05;;;;;;;;;;;;;;;-143.57;100.00;51458.03;5080155;28;20694;-69
2022/11/22 08:15:31;;;;;;;;;;;;;;;-143.57;100.00;51468.00;5082037;28;19931;-69
2022/11/22 08:17:58;;;;;;;;;;;;;;;-143.57;100.00;51485.88;5080288;28;19930;-69
2022/11/22 08:20:25;;;;;;;;;;;;;;;-143.57;100.00;51430.22;5078456;28;20476;-69
2022/11/22 08:22:51;;;;;;;;;;;;;;;-143.57;100.00;51450.09;5083287;28;19967;-69
2022/11/22 08:25:18;;;;;;;;;;;;;;;-143.57;100.00;51469.97;5079191;28;19931;-69
2022/11/22 08:27:45;;;;;;;;;;;;;;;-143.57;100.00;51466.00;5083050;28;19943;-69
2022/11/22 08:30:11;;;;;;;;;;;;;;;-143.57;100.00;51481.91;5085008;28;19981;-68
2022/11/22 08:32:38;;;;;;;;;;;;;;;-143.57;100.00;51446.13;5086638;28;19947;-69
2022/11/22 08:35:05;;;;;;;;;;;;;;;-143.57;100.00;51489.84;5085273;28;19928;-69
2022/11/22 08:37:32;;;;;;;;;;;;;;;-143.57;100.00;51477.94;5080395;28;20310;-69
2022/11/22 08:39:58;;;;;;;;;;;;;;;-143.57;100.00;51473.94;5079236;28;19928;-70
2022/11/22 08:42:26;;;;;;;;;;;;;;;-143.57;100.00;51432.19;5080898;28;20360;-69
2022/11/22 08:44:52;;;;;;;;;;;;;;;-143.57;100.00;51469.97;5080048;28;19924;-69
2022/11/22 08:47:19;;;;;;;;;;;;;;;-143.57;100.00;51446.13;5080170;28;19928;-69
2022/11/22 08:49:46;;;;;;;;;;;;;;;-143.57;100.00;51477.94;5080377;28;20336;-69
2022/11/22 08:52:12;;;;;;;;;;;;;;;-143.57;100.00;51454.06;5080239;28;20310;-69
2022/11/22 08:54:39;;;;;;;;;;;;;;;-143.57;100.00;51489.84;5080297;28;20393;-69
2022/11/22 08:57:06;;;;;;;;;;;;;;;-143.57;100.00;51446.13;5082617;28;19928;-69
2022/11/22 08:59:33;;;;;;;;;;;;;;;-143.57;100.00;51477.94;5082134;28;19967;-69
2022/11/22 09:02:00;;;;;;;;;;;;;;;-143.57;100.00;51458.03;5079926;28;20496;-70
2022/11/22 09:04:27;;;;;;;;;;;;;;;-143.57;100.00;51430.22;5080388;28;19954;-69
2022/11/22 09:06:53;;;;;;;;;;;;;;;-143.57;100.00;51466.00;5080390;28;19928;-67
2022/11/22 09:09:40;;;;;;;;;;;;;;;-143.57;100.00;51485.88;5085538;28;19971;-69
2022/11/22 09:12:06;;;;;;;;;;;;;;;-143.57;100.00;51495.81;5083841;28;19989;-68
2022/11/22 09:14:33;;;;;;;;;;;;;;;-143.57;100.00;51456.06;5080325;28;19953;-68
2022/11/22 09:17:00;;;;;;;;;;;;;;;-143.57;100.00;51454.06;5078750;28;19928;-68
2022/11/22 09:19:27;;;;;;;;;;;;;;;-143.57;100.00;51438.16;5077397;28;20015;-67
2022/11/22 09:21:54;;;;;;;;;;;;;;;-143.57;100.00;51426.25;5082660;28;20278;-69
2022/11/22 09:24:21;;;;;;;;;;;;;;;-143.57;100.00;51438.16;5080585;28;19928;-67
2022/11/22 09:26:47;;;;;;;;;;;;;;;-143.57;100.00;51420.28;5089821;28;20434;-65
2022/11/22 09:29:14;;;;;;;;;;;;;;;-143.57;100.00;51462.03;5079096;28;19985;-66
2022/11/22 09:31:42;;;;;;;;;;;;;;;-143.57;100.00;51460.03;5082435;28;19963;-65
2022/11/22 09:34:08;;;;;;;;;;;;;;;-143.57;100.00;51471.97;5080010;28;19937;-65
2022/11/22 09:36:35;;;;;;;;;;;;;;;-143.57;100.00;51466.00;5080296;28;19932;-65
2022/11/22 09:39:02;;;;;;;;;;;;;;;-143.57;100.00;51481.91;5079288;28;20018;-65
2022/11/22 09:41:47;;;;;;;;;;;;;;;-143.57;100.00;51485.88;5082160;28;20379;-66
2022/11/22 09:44:32;;;;;;;;;;;;;;;-143.57;100.00;51442.16;5081838;28;20413;-64
2022/11/22 09:46:59;;;;;;;;;;;;;;;-143.57;100.00;51458.03;5083766;28;19985;-64
2022/11/22 09:49:38;;;;;;;;;;;;;;;-143.57;100.00;51450.09;5083185;28;20477;-65
2022/11/22 09:52:33;;;;;;;;;;;;;;;-143.57;100.00;51454.06;5083109;28;19924;-66
2022/11/22 09:55:08;;;;;;;;;;;;;;;-143.57;100.00;51454.06;5072944;28;20221;-66
2022/11/22 09:57:40;;;;;;;;;;;;;;;-143.57;100.00;51458.03;5084107;28;19928;-70
2022/11/22 10:00:17;;;;;;;;;;;;;;;-143.57;100.00;51434.19;5084275;28;19924;-68
2022/11/22 10:02:46;;;;;;;;;;;;;;;-143.57;100.00;51430.22;5084235;28;19928;-67
2022/11/22 10:05:58;;;;;;;;;;;;;;;-143.57;100.00;51446.13;5082214;28;21458;-70
2022/11/22 10:08:32;;;;;;;;;;;;;;;-143.57;100.00;51450.09;5068580;28;19928;-70
2022/11/22 10:11:00;;;;;;;;;;;;;;;-143.57;100.00;51452.09;5080366;28;20564;-71
2022/11/22 10:13:37;;;;;;;;;;;;;;;-143.57;100.00;51462.03;5080977;28;20401;-71
2022/11/22 10:16:11;;;;;;;;;;;;;;;-143.57;100.00;51466.00;5079539;28;19949;-70
2022/11/22 10:18:42;;;;;;;;;;;;;;;-143.57;100.00;51442.16;5080221;28;19932;-72
2022/11/22 10:21:12;;;;;;;;;;;;;;;-143.57;100.00;51462.03;5079344;28;20039;-70
2022/11/22 10:23:43;;;;;;;;;;;;;;;-143.57;100.00;51458.03;5077678;28;19928;-71
2022/11/22 10:26:19;;;;;;;;;;;;;;;-143.57;100.00;51444.13;5080230;28;19928;-70
2022/11/22 10:28:48;;;;;;;;;;;;;;;-143.57;100.00;51458.03;5081137;28;20464;-70
2022/11/22 10:31:16;;;;;;;;;;;;;;;-143.57;100.00;51442.16;5084002;28;19932;-70
2022/11/22 10:33:55;;;;;;;;;;;;;;;-143.57;100.00;51454.06;5081071;28;20027;-70
2022/11/22 10:36:22;;;;;;;;;;;;;;;-143.57;100.00;51412.31;5081027;28;20397;-70
2022/11/22 10:39:00;;;;;;;;;;;;;;;-143.57;100.00;51462.03;5079694;28;20078;-71
2022/11/22 10:41:43;;;;;;;;;;;;;;;-143.57;100.00;51444.13;5082588;28;19928;-71
2022/11/22 10:44:22;;;;;;;;;;;;;;;-143.57;100.00;51446.13;5082902;28;19973;-71
2022/11/22 10:47:07;;;;;;;;;;;;;;;-143.57;100.00;51469.97;5082606;28;20392;-70
2022/11/22 10:49:37;;;;;;;;;;;;;;;-143.57;100.00;51473.94;5080707;28;20340;-70
2022/11/22 10:52:26;;;;;;;;;;;;;;;-143.57;100.00;51446.13;5081540;28;19931;-70
2022/11/22 10:55:08;;;;;;;;;;;;;;;-143.57;100.00;51422.25;5079976;28;19935;-70
2022/11/22 10:57:44;;;;;;;;;;;;;;;-143.57;100.00;51469.97;5084170;28;19932;-70
2022/11/22 11:00:17;;;;;;;;;;;;;;;-143.57;100.00;51468.00;5081500;28;19932;-70
2022/11/22 11:02:59;;;;;;;;;;;;;;;-143.57;100.00;51442.16;5080053;28;19935;-71
2022/11/22 11:05:32;;;;;;;;;;;;;;;-143.57;100.00;51422.25;5080459;28;20450;-70
2022/11/22 11:07:59;;;;;;;;;;;;;;;-143.57;100.00;51458.03;5083872;28;19984;-71
2022/11/22 11:10:45;;;;;;;;;;;;;;;-143.57;100.00;51454.06;5081323;28;19935;-71
2022/11/22 11:13:12;;;;;;;;;;;;;;;-143.57;100.00;51462.03;5081559;28;19956;-70
2022/11/22 11:15:49;;;;;;;;;;;;;;;-143.57;100.00;51430.22;5082643;28;19935;-71
2022/11/22 11:18:31;;;;;;;;;;;;;;;-143.57;100.00;51446.13;5084600;28;19928;-71
2022/11/22 11:20:58;;;;;;;;;;;;;;;-143.57;100.00;51442.16;5083880;28;19928;-70
2022/11/22 11:23:24;;;;;;;;;;;;;;;-143.57;100.00;51426.25;5082584;28;19928;-72
2022/11/22 11:25:51;;;;;;;;;;;;;;;-143.57;100.00;51438.16;5083553;28;20225;-71
2022/11/22 11:28:19;;;;;;;;;;;;;;;-143.57;100.00;51422.25;5081323;28;19935;-71
2022/11/22 11:30:51;;;;;;;;;;;;;;;-143.57;100.00;51452.09;5080769;28;19928;-72
2022/11/22 11:33:20;;;;;;;;;;;;;;;-143.57;100.00;51442.16;5080504;28;19938;-70
2022/11/22 11:35:47;;;;;;;;;;;;;;;-143.57;100.00;51462.03;5081542;28;20532;-71
2022/11/22 11:38:26;;;;;;;;;;;;;;;-143.57;100.00;51452.09;5082813;28;20404;-70
2022/11/22 11:40:53;;;;;;;;;;;;;;;-143.57;100.00;51442.16;5076947;28;19928;-72
2022/11/22 11:43:21;;;;;;;;;;;;;;;-143.57;100.00;51442.16;5083023;28;20456;-67
2022/11/22 11:45:48;;;;;;;;;;;;;;;-143.57;100.00;51396.41;5082399;28;20409;-67
2022/11/22 11:48:25;;;;;;;;;;;;;;;-143.57;100.00;51454.06;5081218;28;19928;-67
2022/11/22 11:50:51;;;;;;;;;;;;;;;-143.57;100.00;51422.25;5079268;28;19950;-64
2022/11/22 11:53:24;;;;;;;;;;;;;;;-143.57;100.00;51420.28;5080846;28;20358;-64
2022/11/22 11:55:51;;;;;;;;;;;;;;;-143.57;100.00;51434.19;5080789;28;19932;-65
2022/11/22 11:58:19;;;;;;;;;;;;;;;-143.57;100.00;51454.06;5080833;28;19936;-64
2022/11/22 12:00:46;;;;;;;;;;;;;;;-143.57;100.00;51442.16;5079071;28;19928;-64
2022/11/22 12:03:15;;;;;;;;;;;;;;;-143.57;100.00;51454.06;5080710;28;19924;-64
2022/11/22 12:05:42;;;;;;;;;;;;;;;-143.57;100.00;51432.19;5080783;28;20306;-64
2022/11/22 12:08:27;;;;;;;;;;;;;;;-143.57;100.00;51442.16;5080980;28;20219;-64
2022/11/22 12:11:00;;;;;;;;;;;;;;;-143.57;100.00;51456.06;5081303;28;19928;-65
2022/11/22 12:13:34;;;;;;;;;;;;;;;-143.57;100.00;51440.16;5081532;28;19932;-64
2022/11/22 12:16:23;;;;;;;;;;;;;;;-143.57;100.00;51458.03;5079862;28;19928;-64
2022/11/22 12:18:56;;;;;;;;;;;;;;;-143.57;100.00;51454.06;5081438;28;19928;-64
2022/11/22 12:21:46;;;;;;;;;;;;;;;-143.57;100.00;51456.06;5080221;28;20474;-65
2022/11/22 12:24:22;;;;;;;;;;;;;;;-143.57;100.00;51422.25;5080100;28;19927;-65
2022/11/22 12:27:10;;;;;;;;;;;;;;;-143.57;100.00;51434.19;5080519;28;20050;-65
2022/11/22 12:29:38;;;;;;;;;;;;;;;-143.57;100.00;51430.22;5080846;28;20540;-65
2022/11/22 12:32:17;;;;;;;;;;;;;;;-143.57;100.00;51469.97;5080550;28;20021;-64
2022/11/22 12:34:44;;;;;;;;;;;;;;;-143.57;100.00;51398.41;5080312;28;19960;-64
2022/11/22 12:37:19;;;;;;;;;;;;;;;-143.57;100.00;51454.06;5080354;28;19928;-64
2022/11/22 12:39:47;;;;;;;;;;;;;;;-143.57;100.00;51402.38;5076859;28;19931;-64
2022/11/22 12:42:16;;;;;;;;;;;;;;;-143.57;100.00;51446.13;5078977;28;19935;-65
2022/11/22 12:44:52;;;;;;;;;;;;;;;-143.57;100.00;51442.16;5080338;28;19939;-65